sensor_id;sensor_type;location;lat;lon;timestamp;pressure;altitude;pressure_sealevel;temperature;humidity
51460;BME280;37534;39.772;2.718;2022-09-13T00:01:36;100865.81;;;28.24;68.26
51460;BME280;37534;39.772;2.718;2022-09-13T00:04:01;100858.72;;;28.07;69.58
51460;BME280;37534;39.772;2.718;2022-09-13T00:06:28;100857.59;;;28.00;70.90
51460;BME280;37534;39.772;2.718;2022-09-13T00:08:53;100848.03;;;27.89;71.87
51460;BME280;37534;39.772;2.718;2022-09-13T00:11:23;100853.09;;;27.82;72.12
51460;BME280;37534;39.772;2.718;2022-09-13T00:13:50;100856.25;;;27.96;72.70
51460;BME280;37534;39.772;2.718;2022-09-13T00:16:18;100852.50;;;27.88;72.89
51460;BME280;37534;39.772;2.718;2022-09-13T00:18:44;100856.84;;;27.90;72.70
51460;BME280;37534;39.772;2.718;2022-09-13T00:21:12;100841.94;;;27.61;73.35
51460;BME280;37534;39.772;2.718;2022-09-13T00:23:39;100851.16;;;27.57;73.49
51460;BME280;37534;39.772;2.718;2022-09-13T00:26:14;100841.72;;;27.44;73.17
51460;BME280;37534;39.772;2.718;2022-09-13T00:28:40;100840.63;;;27.37;71.53
51460;BME280;37534;39.772;2.718;2022-09-13T00:31:07;100843.56;;;27.34;71.35
51460;BME280;37534;39.772;2.718;2022-09-13T00:33:33;100833.69;;;27.36;70.49
51460;BME280;37534;39.772;2.718;2022-09-13T00:36:09;100833.97;;;27.33;70.78
51460;BME280;37534;39.772;2.718;2022-09-13T00:38:38;100817.53;;;27.20;71.54
51460;BME280;37534;39.772;2.718;2022-09-13T00:41:06;100818.53;;;27.19;72.03
51460;BME280;37534;39.772;2.718;2022-09-13T00:46:37;100825.06;;;27.15;72.80
51460;BME280;37534;39.772;2.718;2022-09-13T00:51:40;100814.75;;;26.84;74.44
51460;BME280;37534;39.772;2.718;2022-09-13T00:54:07;100824.34;;;26.85;75.17
51460;BME280;37534;39.772;2.718;2022-09-13T00:56:38;100829.09;;;26.81;76.46
51460;BME280;37534;39.772;2.718;2022-09-13T00:59:11;100836.34;;;26.79;77.01
51460;BME280;37534;39.772;2.718;2022-09-13T01:01:52;100841.19;;;26.93;78.25
51460;BME280;37534;39.772;2.718;2022-09-13T01:04:20;100838.28;;;26.87;78.72
51460;BME280;37534;39.772;2.718;2022-09-13T01:06:48;100829.09;;;26.71;79.08
51460;BME280;37534;39.772;2.718;2022-09-13T01:09:13;100838.03;;;26.70;80.05
51460;BME280;37534;39.772;2.718;2022-09-13T01:11:48;100835.53;;;26.69;80.91
51460;BME280;37534;39.772;2.718;2022-09-13T01:14:18;100832.34;;;26.65;81.51
51460;BME280;37534;39.772;2.718;2022-09-13T01:16:44;100832.16;;;26.57;82.46
51460;BME280;37534;39.772;2.718;2022-09-13T01:19:10;100814.38;;;26.49;83.57
51460;BME280;37534;39.772;2.718;2022-09-13T01:30:16;100806.41;;;26.40;87.77
51460;BME280;37534;39.772;2.718;2022-09-13T01:38:39;100800.59;;;26.07;93.20
51460;BME280;37534;39.772;2.718;2022-09-13T01:41:12;100798.78;;;26.07;93.26
51460;BME280;37534;39.772;2.718;2022-09-13T01:43:51;100810.19;;;26.08;92.99
51460;BME280;37534;39.772;2.718;2022-09-13T01:46:27;100811.59;;;26.12;92.85
51460;BME280;37534;39.772;2.718;2022-09-13T01:54:33;100816.59;;;26.15;93.51
51460;BME280;37534;39.772;2.718;2022-09-13T01:59:55;100802.25;;;26.08;94.65
51460;BME280;37534;39.772;2.718;2022-09-13T02:02:47;100795.72;;;26.12;95.10
51460;BME280;37534;39.772;2.718;2022-09-13T02:05:45;100790.31;;;26.13;95.96
51460;BME280;37534;39.772;2.718;2022-09-13T02:08:18;100781.25;;;26.16;95.58
51460;BME280;37534;39.772;2.718;2022-09-13T02:10:51;100764.00;;;26.02;97.23
51460;BME280;37534;39.772;2.718;2022-09-13T02:13:23;100754.53;;;25.99;98.97
51460;BME280;37534;39.772;2.718;2022-09-13T02:15:53;100725.03;;;25.94;100.00
51460;BME280;37534;39.772;2.718;2022-09-13T02:18:34;100701.34;;;25.83;100.00
51460;BME280;37534;39.772;2.718;2022-09-13T02:21:06;100692.63;;;25.73;100.00
51460;BME280;37534;39.772;2.718;2022-09-13T02:23:40;100712.91;;;25.72;100.00
51460;BME280;37534;39.772;2.718;2022-09-13T02:26:08;100705.53;;;25.76;100.00
51460;BME280;37534;39.772;2.718;2022-09-13T02:28:39;100700.94;;;25.88;100.00
51460;BME280;37534;39.772;2.718;2022-09-13T02:31:07;100712.50;;;25.87;100.00
51460;BME280;37534;39.772;2.718;2022-09-13T02:33:39;100721.09;;;25.79;100.00
51460;BME280;37534;39.772;2.718;2022-09-13T02:36:16;100734.59;;;25.76;100.00
51460;BME280;37534;39.772;2.718;2022-09-13T02:38:56;100729.19;;;25.87;100.00
51460;BME280;37534;39.772;2.718;2022-09-13T02:41:32;100727.78;;;25.83;100.00
51460;BME280;37534;39.772;2.718;2022-09-13T02:44:11;100729.03;;;25.79;100.00
51460;BME280;37534;39.772;2.718;2022-09-13T02:49:47;100753.84;;;25.97;100.00
51460;BME280;37534;39.772;2.718;2022-09-13T02:52:50;100757.19;;;26.19;100.00
51460;BME280;37534;39.772;2.718;2022-09-13T02:55:43;100739.53;;;26.10;100.00
51460;BME280;37534;39.772;2.718;2022-09-13T03:01:20;100722.22;;;25.86;100.00
51460;BME280;37534;39.772;2.718;2022-09-13T03:03:46;100729.19;;;25.87;100.00
51460;BME280;37534;39.772;2.718;2022-09-13T03:06:12;100713.19;;;25.79;100.00
51460;BME280;37534;39.772;2.718;2022-09-13T03:08:38;100720.69;;;25.74;100.00
51460;BME280;37534;39.772;2.718;2022-09-13T03:16:23;100699.97;;;25.59;100.00
51460;BME280;37534;39.772;2.718;2022-09-13T03:19:03;100702.19;;;25.74;100.00
51460;BME280;37534;39.772;2.718;2022-09-13T03:30:04;100666.59;;;25.49;100.00
51460;BME280;37534;39.772;2.718;2022-09-13T03:35:28;100663.66;;;25.61;100.00
51460;BME280;37534;39.772;2.718;2022-09-13T03:38:36;100657.97;;;25.56;100.00
51460;BME280;37534;39.772;2.718;2022-09-13T03:41:07;100661.00;;;25.42;100.00
51460;BME280;37534;39.772;2.718;2022-09-13T03:43:52;100650.47;;;25.32;100.00
51460;BME280;37534;39.772;2.718;2022-09-13T03:46:27;100655.59;;;25.34;100.00
51460;BME280;37534;39.772;2.718;2022-09-13T03:48:55;100637.66;;;25.47;100.00
51460;BME280;37534;39.772;2.718;2022-09-13T03:51:22;100639.47;;;25.37;100.00
51460;BME280;37534;39.772;2.718;2022-09-13T03:53:54;100641.00;;;25.39;100.00
51460;BME280;37534;39.772;2.718;2022-09-13T03:56:22;100646.28;;;25.39;100.00
51460;BME280;37534;39.772;2.718;2022-09-13T03:58:49;100643.53;;;25.41;100.00
51460;BME280;37534;39.772;2.718;2022-09-13T04:01:18;100631.97;;;25.42;100.00
51460;BME280;37534;39.772;2.718;2022-09-13T04:03:44;100647.13;;;25.50;100.00
51460;BME280;37534;39.772;2.718;2022-09-13T04:06:09;100647.13;;;25.40;100.00
51460;BME280;37534;39.772;2.718;2022-09-13T04:08:35;100650.44;;;25.42;100.00
51460;BME280;37534;39.772;2.718;2022-09-13T04:11:01;100644.91;;;25.45;100.00
51460;BME280;37534;39.772;2.718;2022-09-13T04:13:26;100656.59;;;25.52;100.00
51460;BME280;37534;39.772;2.718;2022-09-13T04:15:52;100650.06;;;25.47;100.00
51460;BME280;37534;39.772;2.718;2022-09-13T04:18:17;100657.41;;;25.63;93.89
51460;BME280;37534;39.772;2.718;2022-09-13T04:20:43;100654.34;;;25.57;89.08
51460;BME280;37534;39.772;2.718;2022-09-13T04:23:08;100654.22;;;25.69;87.73
51460;BME280;37534;39.772;2.718;2022-09-13T04:25:37;100650.03;;;25.95;84.38
51460;BME280;37534;39.772;2.718;2022-09-13T04:28:03;100640.28;;;26.06;68.99
51460;BME280;37534;39.772;2.718;2022-09-13T04:30:28;100644.03;;;26.13;72.20
51460;BME280;37534;39.772;2.718;2022-09-13T04:32:55;100640.03;;;26.56;61.03
51460;BME280;37534;39.772;2.718;2022-09-13T04:35:21;100643.50;;;26.84;62.15
51460;BME280;37534;39.772;2.718;2022-09-13T04:37:46;100649.06;;;26.91;65.23
51460;BME280;37534;39.772;2.718;2022-09-13T04:40:12;100652.78;;;26.98;60.59
51460;BME280;37534;39.772;2.718;2022-09-13T04:42:38;100652.31;;;26.85;62.92
51460;BME280;37534;39.772;2.718;2022-09-13T04:45:04;100666.75;;;26.90;64.65
51460;BME280;37534;39.772;2.718;2022-09-13T04:47:30;100658.03;;;26.80;63.68
51460;BME280;37534;39.772;2.718;2022-09-13T04:49:56;100668.03;;;26.86;62.37
51460;BME280;37534;39.772;2.718;2022-09-13T04:52:22;100666.91;;;26.89;63.67
51460;BME280;37534;39.772;2.718;2022-09-13T04:54:48;100663.56;;;26.87;60.55
51460;BME280;37534;39.772;2.718;2022-09-13T04:57:14;100649.94;;;26.82;61.33
51460;BME280;37534;39.772;2.718;2022-09-13T04:59:41;100664.53;;;26.86;60.49
51460;BME280;37534;39.772;2.718;2022-09-13T05:02:07;100675.19;;;26.76;61.96
51460;BME280;37534;39.772;2.718;2022-09-13T05:04:35;100676.22;;;26.65;62.46
51460;BME280;37534;39.772;2.718;2022-09-13T05:07:01;100684.28;;;26.64;61.07
51460;BME280;37534;39.772;2.718;2022-09-13T05:09:26;100682.31;;;26.76;59.86
51460;BME280;37534;39.772;2.718;2022-09-13T05:11:52;100692.00;;;26.85;60.43
51460;BME280;37534;39.772;2.718;2022-09-13T05:14:17;100693.97;;;26.83;60.35
51460;BME280;37534;39.772;2.718;2022-09-13T05:16:43;100695.91;;;26.81;62.11
51460;BME280;37534;39.772;2.718;2022-09-13T05:19:10;100695.06;;;26.90;64.78
51460;BME280;37534;39.772;2.718;2022-09-13T05:21:36;100691.28;;;26.92;67.89
51460;BME280;37534;39.772;2.718;2022-09-13T05:24:02;100688.38;;;26.86;68.80
51460;BME280;37534;39.772;2.718;2022-09-13T05:26:28;100688.13;;;26.79;72.58
51460;BME280;37534;39.772;2.718;2022-09-13T05:28:58;100701.06;;;26.82;67.47
51460;BME280;37534;39.772;2.718;2022-09-13T05:31:30;100718.56;;;26.65;70.24
51460;BME280;37534;39.772;2.718;2022-09-13T05:33:58;100740.97;;;26.61;76.20
51460;BME280;37534;39.772;2.718;2022-09-13T05:36:25;100743.63;;;26.61;88.25
51460;BME280;37534;39.772;2.718;2022-09-13T05:38:52;100749.56;;;26.83;100.00
51460;BME280;37534;39.772;2.718;2022-09-13T05:41:18;100738.88;;;27.02;100.00
51460;BME280;37534;39.772;2.718;2022-09-13T05:43:44;100736.59;;;27.07;100.00
51460;BME280;37534;39.772;2.718;2022-09-13T05:46:12;100750.34;;;26.93;98.20
51460;BME280;37534;39.772;2.718;2022-09-13T05:48:38;100759.75;;;26.78;98.74
51460;BME280;37534;39.772;2.718;2022-09-13T05:51:12;100763.47;;;26.85;99.98
51460;BME280;37534;39.772;2.718;2022-09-13T05:53:39;100744.06;;;26.94;89.21
51460;BME280;37534;39.772;2.718;2022-09-13T05:56:07;100742.50;;;27.01;82.78
51460;BME280;37534;39.772;2.718;2022-09-13T05:58:33;100752.50;;;27.07;80.94
51460;BME280;37534;39.772;2.718;2022-09-13T06:01:02;100766.81;;;27.15;75.63
51460;BME280;37534;39.772;2.718;2022-09-13T06:03:27;100758.03;;;27.14;80.82
51460;BME280;37534;39.772;2.718;2022-09-13T06:05:54;100759.19;;;27.11;74.85
51460;BME280;37534;39.772;2.718;2022-09-13T06:08:21;100753.44;;;27.16;76.60
51460;BME280;37534;39.772;2.718;2022-09-13T06:11:03;100729.53;;;27.36;74.04
51460;BME280;37534;39.772;2.718;2022-09-13T06:13:30;100738.00;;;27.39;74.54
51460;BME280;37534;39.772;2.718;2022-09-13T06:15:57;100753.50;;;27.34;76.09
51460;BME280;37534;39.772;2.718;2022-09-13T06:18:23;100747.78;;;27.39;77.83
51460;BME280;37534;39.772;2.718;2022-09-13T06:20:50;100745.91;;;27.49;76.95
51460;BME280;37534;39.772;2.718;2022-09-13T06:23:16;100751.63;;;27.44;78.46
51460;BME280;37534;39.772;2.718;2022-09-13T06:25:42;100763.91;;;27.45;80.46
51460;BME280;37534;39.772;2.718;2022-09-13T06:28:08;100759.69;;;27.53;79.48
51460;BME280;37534;39.772;2.718;2022-09-13T06:30:34;100753.34;;;27.63;76.33
51460;BME280;37534;39.772;2.718;2022-09-13T06:33:00;100763.84;;;27.73;77.06
51460;BME280;37534;39.772;2.718;2022-09-13T06:35:26;100772.28;;;27.68;76.48
51460;BME280;37534;39.772;2.718;2022-09-13T06:37:55;100763.41;;;27.78;75.74
51460;BME280;37534;39.772;2.718;2022-09-13T06:40:24;100767.56;;;27.80;73.96
51460;BME280;37534;39.772;2.718;2022-09-13T06:42:50;100752.53;;;27.81;73.03
51460;BME280;37534;39.772;2.718;2022-09-13T06:45:15;100763.44;;;27.96;68.41
51460;BME280;37534;39.772;2.718;2022-09-13T06:47:41;100755.72;;;28.02;68.97
51460;BME280;37534;39.772;2.718;2022-09-13T06:50:07;100756.16;;;28.16;66.71
51460;BME280;37534;39.772;2.718;2022-09-13T06:52:33;100739.34;;;28.25;67.50
51460;BME280;37534;39.772;2.718;2022-09-13T06:54:59;100753.28;;;28.53;67.83
51460;BME280;37534;39.772;2.718;2022-09-13T06:57:25;100744.13;;;28.74;67.14
51460;BME280;37534;39.772;2.718;2022-09-13T06:59:50;100745.38;;;28.88;69.90
51460;BME280;37534;39.772;2.718;2022-09-13T07:02:16;100726.22;;;28.76;71.45
51460;BME280;37534;39.772;2.718;2022-09-13T07:04:41;100734.34;;;28.74;72.22
51460;BME280;37534;39.772;2.718;2022-09-13T07:07:07;100744.44;;;28.71;70.89
51460;BME280;37534;39.772;2.718;2022-09-13T07:09:32;100754.19;;;28.62;70.98
51460;BME280;37534;39.772;2.718;2022-09-13T07:12:01;100744.72;;;28.59;72.20
51460;BME280;37534;39.772;2.718;2022-09-13T07:14:27;100744.13;;;28.74;75.08
51460;BME280;37534;39.772;2.718;2022-09-13T07:16:54;100748.59;;;28.99;75.40
51460;BME280;37534;39.772;2.718;2022-09-13T07:19:21;100755.44;;;29.53;71.95
51460;BME280;37534;39.772;2.718;2022-09-13T07:21:48;100758.50;;;29.99;66.82
51460;BME280;37534;39.772;2.718;2022-09-13T07:24:17;100764.31;;;30.11;67.66
51460;BME280;37534;39.772;2.718;2022-09-13T07:26:44;100764.63;;;30.32;68.73
51460;BME280;37534;39.772;2.718;2022-09-13T07:29:15;100773.47;;;30.49;69.28
51460;BME280;37534;39.772;2.718;2022-09-13T07:31:45;100767.16;;;30.26;69.50
51460;BME280;37534;39.772;2.718;2022-09-13T07:34:14;100791.72;;;30.69;68.88
51460;BME280;37534;39.772;2.718;2022-09-13T07:36:40;100791.16;;;31.06;68.42
51460;BME280;37534;39.772;2.718;2022-09-13T07:39:07;100782.66;;;31.51;66.25
51460;BME280;37534;39.772;2.718;2022-09-13T07:41:33;100810.13;;;31.82;64.75
51460;BME280;37534;39.772;2.718;2022-09-13T07:44:00;100805.53;;;31.68;63.83
51460;BME280;37534;39.772;2.718;2022-09-13T07:46:27;100814.88;;;31.64;64.37
51460;BME280;37534;39.772;2.718;2022-09-13T07:48:57;100816.78;;;31.55;66.03
51460;BME280;37534;39.772;2.718;2022-09-13T07:51:28;100827.13;;;31.81;65.13
51460;BME280;37534;39.772;2.718;2022-09-13T07:53:56;100831.75;;;32.57;63.89
51460;BME280;37534;39.772;2.718;2022-09-13T07:56:25;100838.81;;;33.18;62.54
51460;BME280;37534;39.772;2.718;2022-09-13T07:58:52;100834.34;;;33.55;61.07
51460;BME280;37534;39.772;2.718;2022-09-13T08:01:34;100832.88;;;33.67;60.37
51460;BME280;37534;39.772;2.718;2022-09-13T08:04:03;100828.69;;;34.22;58.92
51460;BME280;37534;39.772;2.718;2022-09-13T08:06:30;100834.19;;;34.99;56.34
51460;BME280;37534;39.772;2.718;2022-09-13T08:08:56;100843.63;;;34.88;55.64
51460;BME280;37534;39.772;2.718;2022-09-13T08:11:36;100857.59;;;34.55;56.19
51460;BME280;37534;39.772;2.718;2022-09-13T08:14:03;100869.72;;;34.08;58.08
51460;BME280;37534;39.772;2.718;2022-09-13T08:16:29;100880.66;;;33.91;60.61
51460;BME280;37534;39.772;2.718;2022-09-13T08:18:57;100882.31;;;33.41;63.11
51460;BME280;37534;39.772;2.718;2022-09-13T08:21:24;100872.81;;;33.24;66.26
51460;BME280;37534;39.772;2.718;2022-09-13T08:23:54;100863.25;;;33.14;69.87
51460;BME280;37534;39.772;2.718;2022-09-13T08:26:20;100860.09;;;32.96;72.45
51460;BME280;37534;39.772;2.718;2022-09-13T08:28:46;100852.97;;;32.88;73.92
51460;BME280;37534;39.772;2.718;2022-09-13T08:31:13;100860.06;;;32.81;73.71
51460;BME280;37534;39.772;2.718;2022-09-13T08:33:45;100852.06;;;33.26;71.84
51460;BME280;37534;39.772;2.718;2022-09-13T08:36:11;100829.06;;;33.98;64.04
51460;BME280;37534;39.772;2.718;2022-09-13T08:38:37;100822.28;;;34.02;63.57
51460;BME280;37534;39.772;2.718;2022-09-13T08:46:32;100778.63;;;33.07;63.77
51460;BME280;37534;39.772;2.718;2022-09-13T08:49:02;100757.16;;;33.00;64.13
51460;BME280;37534;39.772;2.718;2022-09-13T08:54:31;100755.66;;;33.49;60.68
51460;BME280;37534;39.772;2.718;2022-09-13T08:57:31;100752.31;;;34.26;55.42
51460;BME280;37534;39.772;2.718;2022-09-13T09:00:49;100719.78;;;35.06;50.89
51460;BME280;37534;39.772;2.718;2022-09-13T09:03:29;100719.75;;;35.88;48.99
51460;BME280;37534;39.772;2.718;2022-09-13T09:05:59;100709.59;;;35.63;48.32
51460;BME280;37534;39.772;2.718;2022-09-13T09:08:32;100723.16;;;35.28;49.70
51460;BME280;37534;39.772;2.718;2022-09-13T09:11:13;100704.22;;;35.36;49.72
51460;BME280;37534;39.772;2.718;2022-09-13T09:19:23;100687.53;;;36.01;44.13
51460;BME280;37534;39.772;2.718;2022-09-13T09:21:50;100686.06;;;36.32;43.82
51460;BME280;37534;39.772;2.718;2022-09-13T09:24:23;100670.66;;;36.66;42.53
51460;BME280;37534;39.772;2.718;2022-09-13T09:26:50;100658.78;;;37.25;40.41
51460;BME280;37534;39.772;2.718;2022-09-13T09:29:19;100662.56;;;37.75;37.42
51460;BME280;37534;39.772;2.718;2022-09-13T09:37:22;100649.19;;;37.61;37.08
51460;BME280;37534;39.772;2.718;2022-09-13T09:39:52;100638.13;;;38.20;35.42
51460;BME280;37534;39.772;2.718;2022-09-13T09:42:23;100633.63;;;39.11;32.82
51460;BME280;37534;39.772;2.718;2022-09-13T09:44:52;100626.38;;;39.24;32.76
51460;BME280;37534;39.772;2.718;2022-09-13T09:47:24;100619.97;;;39.48;31.52
51460;BME280;37534;39.772;2.718;2022-09-13T09:55:29;100616.69;;;41.37;29.67
51460;BME280;37534;39.772;2.718;2022-09-13T09:58:04;100630.25;;;41.93;27.77
51460;BME280;37534;39.772;2.718;2022-09-13T10:00:35;100634.31;;;41.06;30.41
51460;BME280;37534;39.772;2.718;2022-09-13T10:03:16;100655.00;;;39.36;36.61
51460;BME280;37534;39.772;2.718;2022-09-13T10:05:42;100662.13;;;38.58;38.56
51460;BME280;37534;39.772;2.718;2022-09-13T10:08:27;100658.72;;;38.08;40.11
51460;BME280;37534;39.772;2.718;2022-09-13T10:10:56;100654.50;;;37.43;42.67
51460;BME280;37534;39.772;2.718;2022-09-13T10:13:25;100669.38;;;36.82;46.21
51460;BME280;37534;39.772;2.718;2022-09-13T10:15:59;100684.28;;;36.64;48.07
51460;BME280;37534;39.772;2.718;2022-09-13T10:18:33;100681.53;;;36.26;51.93
51460;BME280;37534;39.772;2.718;2022-09-13T10:23:32;100687.69;;;37.62;48.55
51460;BME280;37534;39.772;2.718;2022-09-13T10:26:03;100687.47;;;38.88;44.71
51460;BME280;37534;39.772;2.718;2022-09-13T10:29:07;100692.97;;;40.48;37.82
51460;BME280;37534;39.772;2.718;2022-09-13T10:31:36;100690.38;;;41.56;34.63
51460;BME280;37534;39.772;2.718;2022-09-13T10:34:12;100693.31;;;41.89;33.22
51460;BME280;37534;39.772;2.718;2022-09-13T10:36:47;100694.38;;;42.71;33.44
51460;BME280;37534;39.772;2.718;2022-09-13T10:39:20;100696.66;;;43.66;31.44
51460;BME280;37534;39.772;2.718;2022-09-13T10:41:57;100699.47;;;44.29;30.72
51460;BME280;37534;39.772;2.718;2022-09-13T10:47:09;100679.03;;;45.15;30.59
51460;BME280;37534;39.772;2.718;2022-09-13T10:52:30;100681.22;;;45.49;28.76
51460;BME280;37534;39.772;2.718;2022-09-13T10:57:40;100685.25;;;44.12;30.65
51460;BME280;37534;39.772;2.718;2022-09-13T11:00:08;100685.50;;;42.76;32.30
51460;BME280;37534;39.772;2.718;2022-09-13T11:05:16;100680.72;;;42.39;33.67
51460;BME280;37534;39.772;2.718;2022-09-13T11:18:08;100681.34;;;46.20;26.83
51460;BME280;37534;39.772;2.718;2022-09-13T11:21:14;100683.81;;;46.16;26.94
51460;BME280;37534;39.772;2.718;2022-09-13T11:47:54;100813.59;;;45.55;27.47
51460;BME280;37534;39.772;2.718;2022-09-13T12:01:38;100868.97;;;44.45;33.33
51460;BME280;37534;39.772;2.718;2022-09-13T12:04:10;100885.94;;;43.60;34.97
51460;BME280;37534;39.772;2.718;2022-09-13T12:06:45;100884.03;;;43.34;34.33
51460;BME280;37534;39.772;2.718;2022-09-13T12:09:25;100893.09;;;42.10;37.59
51460;BME280;37534;39.772;2.718;2022-09-13T12:12:11;100906.38;;;41.66;39.66
51460;BME280;37534;39.772;2.718;2022-09-13T12:14:44;100910.53;;;40.57;41.66
51460;BME280;37534;39.772;2.718;2022-09-13T12:19:53;100917.13;;;38.34;51.34
51460;BME280;37534;39.772;2.718;2022-09-13T12:22:22;100923.94;;;37.60;54.12
51460;BME280;37534;39.772;2.718;2022-09-13T12:24:55;100934.88;;;36.86;57.25
51460;BME280;37534;39.772;2.718;2022-09-13T12:27:50;100923.44;;;36.17;56.86
51460;BME280;37534;39.772;2.718;2022-09-13T12:30:20;100935.41;;;35.60;58.90
51460;BME280;37534;39.772;2.718;2022-09-13T12:32:48;100953.16;;;34.98;63.11
51460;BME280;37534;39.772;2.718;2022-09-13T13:00:33;100932.78;;;33.06;86.91
51460;BME280;37534;39.772;2.718;2022-09-13T13:05:45;100901.59;;;33.22;86.16
51460;BME280;37534;39.772;2.718;2022-09-13T13:11:22;100878.84;;;33.77;82.01
51460;BME280;37534;39.772;2.718;2022-09-13T13:13:58;100863.16;;;33.89;80.53
51460;BME280;37534;39.772;2.718;2022-09-13T13:16:34;100857.88;;;33.96;78.82
51460;BME280;37534;39.772;2.718;2022-09-13T13:19:31;100855.31;;;34.31;78.14
51460;BME280;37534;39.772;2.718;2022-09-13T13:27:54;100844.03;;;35.20;69.50
51460;BME280;37534;39.772;2.718;2022-09-13T13:30:33;100843.88;;;36.10;65.22
51460;BME280;37534;39.772;2.718;2022-09-13T13:33:14;100842.63;;;36.06;65.54
51460;BME280;37534;39.772;2.718;2022-09-13T13:35:41;100834.22;;;36.42;63.55
51460;BME280;37534;39.772;2.718;2022-09-13T13:38:35;100832.72;;;36.60;62.47
51460;BME280;37534;39.772;2.718;2022-09-13T13:46:51;100839.78;;;36.41;67.15
51460;BME280;37534;39.772;2.718;2022-09-13T13:57:01;100818.97;;;34.71;74.99
51460;BME280;37534;39.772;2.718;2022-09-13T13:59:31;100821.94;;;34.26;77.98
51460;BME280;37534;39.772;2.718;2022-09-13T14:01:58;100809.06;;;33.94;78.99
51460;BME280;37534;39.772;2.718;2022-09-13T14:04:39;100800.53;;;33.83;79.28
51460;BME280;37534;39.772;2.718;2022-09-13T14:07:23;100778.78;;;33.35;82.68
51460;BME280;37534;39.772;2.718;2022-09-13T14:10:20;100768.97;;;33.21;83.19
51460;BME280;37534;39.772;2.718;2022-09-13T14:15:28;100770.19;;;33.61;79.96
51460;BME280;37534;39.772;2.718;2022-09-13T14:18:16;100762.75;;;33.57;79.29
51460;BME280;37534;39.772;2.718;2022-09-13T14:21:26;100768.56;;;33.60;78.99
51460;BME280;37534;39.772;2.718;2022-09-13T14:24:19;100762.16;;;33.76;77.26
51460;BME280;37534;39.772;2.718;2022-09-13T14:26:49;100780.44;;;33.72;77.41
51460;BME280;37534;39.772;2.718;2022-09-13T14:29:18;100777.50;;;33.67;77.24
51460;BME280;37534;39.772;2.718;2022-09-13T14:31:46;100753.94;;;33.41;76.89
51460;BME280;37534;39.772;2.718;2022-09-13T14:34:25;100782.47;;;33.34;76.88
51460;BME280;37534;39.772;2.718;2022-09-13T14:36:53;100801.94;;;33.13;77.80
51460;BME280;37534;39.772;2.718;2022-09-13T14:39:20;100800.00;;;33.07;77.25
51460;BME280;37534;39.772;2.718;2022-09-13T14:41:45;100788.47;;;33.06;76.74
51460;BME280;37534;39.772;2.718;2022-09-13T14:44:21;100803.44;;;33.15;76.49
51460;BME280;37534;39.772;2.718;2022-09-13T14:46:58;100826.19;;;32.96;77.63
51460;BME280;37534;39.772;2.718;2022-09-13T14:49:32;100837.28;;;32.70;79.29
51460;BME280;37534;39.772;2.718;2022-09-13T14:52:03;100834.28;;;32.35;82.23
51460;BME280;37534;39.772;2.718;2022-09-13T14:54:45;100839.81;;;32.02;84.02
51460;BME280;37534;39.772;2.718;2022-09-13T14:57:24;100851.22;;;31.96;84.18
51460;BME280;37534;39.772;2.718;2022-09-13T14:59:54;100836.78;;;31.82;84.59
51460;BME280;37534;39.772;2.718;2022-09-13T15:02:25;100847.69;;;32.04;83.29
51460;BME280;37534;39.772;2.718;2022-09-13T15:04:54;100850.19;;;32.06;81.62
51460;BME280;37534;39.772;2.718;2022-09-13T15:07:32;100864.00;;;32.09;81.86
51460;BME280;37534;39.772;2.718;2022-09-13T15:15:27;100877.34;;;32.32;75.69
51460;BME280;37534;39.772;2.718;2022-09-13T15:17:58;100873.81;;;32.93;73.96
51460;BME280;37534;39.772;2.718;2022-09-13T15:20:26;100850.84;;;33.58;67.90
51460;BME280;37534;39.772;2.718;2022-09-13T15:22:53;100841.88;;;34.02;63.44
51460;BME280;37534;39.772;2.718;2022-09-13T15:25:23;100824.28;;;33.93;61.19
51460;BME280;37534;39.772;2.718;2022-09-13T15:27:50;100837.78;;;34.06;62.18
51460;BME280;37534;39.772;2.718;2022-09-13T15:41:17;100812.59;;;33.43;63.07
51460;BME280;37534;39.772;2.718;2022-09-13T15:43:41;100793.84;;;33.21;63.68
51460;BME280;37534;39.772;2.718;2022-09-13T15:46:18;100797.44;;;33.13;64.92
51460;BME280;37534;39.772;2.718;2022-09-13T15:48:50;100778.25;;;33.10;62.96
51460;BME280;37534;39.772;2.718;2022-09-13T15:51:16;100769.41;;;32.94;61.81
51460;BME280;37534;39.772;2.718;2022-09-13T15:53:43;100774.03;;;32.86;61.55
51460;BME280;37534;39.772;2.718;2022-09-13T15:56:13;100782.22;;;32.84;61.00
51460;BME280;37534;39.772;2.718;2022-09-13T15:58:40;100782.22;;;32.69;62.64
51460;BME280;37534;39.772;2.718;2022-09-13T16:01:05;100756.31;;;32.55;64.95
51460;BME280;37534;39.772;2.718;2022-09-13T16:03:34;100747.41;;;32.63;65.08
51460;BME280;37534;39.772;2.718;2022-09-13T16:05:59;100760.56;;;32.79;65.36
51460;BME280;37534;39.772;2.718;2022-09-13T16:08:25;100760.16;;;32.52;65.58
51460;BME280;37534;39.772;2.718;2022-09-13T16:10:50;100741.28;;;32.54;65.18
51460;BME280;37534;39.772;2.718;2022-09-13T16:13:16;100740.94;;;32.57;65.40
51460;BME280;37534;39.772;2.718;2022-09-13T16:15:42;100735.94;;;32.54;64.83
51460;BME280;37534;39.772;2.718;2022-09-13T16:18:08;100732.34;;;32.47;65.96
51460;BME280;37534;39.772;2.718;2022-09-13T16:20:34;100729.41;;;32.42;66.88
51460;BME280;37534;39.772;2.718;2022-09-13T16:22:59;100727.75;;;32.40;65.60
51460;BME280;37534;39.772;2.718;2022-09-13T16:25:25;100725.16;;;32.32;66.44
51460;BME280;37534;39.772;2.718;2022-09-13T16:27:50;100735.91;;;32.24;66.52
51460;BME280;37534;39.772;2.718;2022-09-13T16:30:19;100728.38;;;32.13;68.13
51460;BME280;37534;39.772;2.718;2022-09-13T16:32:47;100726.69;;;32.12;67.90
51460;BME280;37534;39.772;2.718;2022-09-13T16:35:13;100706.75;;;31.99;68.75